sensor_id;sensor_type;location;lat;lon;timestamp;P1;durP1;ratioP1;P2;durP2;ratioP2
50056;SDS011;36875;49.468;11.200;2023-11-19T00:00:50;1.80;;;1.08;;
50056;SDS011;36875;49.468;11.200;2023-11-19T00:03:16;3.22;;;1.02;;
50056;SDS011;36875;49.468;11.200;2023-11-19T00:05:42;4.78;;;1.15;;
50056;SDS011;36875;49.468;11.200;2023-11-19T00:08:08;4.13;;;1.30;;
50056;SDS011;36875;49.468;11.200;2023-11-19T00:10:34;3.38;;;1.10;;
50056;SDS011;36875;49.468;11.200;2023-11-19T00:13:00;2.45;;;1.17;;
50056;SDS011;36875;49.468;11.200;2023-11-19T00:15:28;2.97;;;0.93;;
50056;SDS011;36875;49.468;11.200;2023-11-19T00:17:53;5.28;;;1.23;;
50056;SDS011;36875;49.468;11.200;2023-11-19T00:20:19;4.10;;;1.42;;
50056;SDS011;36875;49.468;11.200;2023-11-19T00:22:47;2.10;;;1.00;;
50056;SDS011;36875;49.468;11.200;2023-11-19T00:25:16;2.75;;;1.20;;
50056;SDS011;36875;49.468;11.200;2023-11-19T00:27:42;2.30;;;1.02;;
50056;SDS011;36875;49.468;11.200;2023-11-19T00:30:12;2.88;;;1.00;;
50056;SDS011;36875;49.468;11.200;2023-11-19T00:32:39;3.92;;;1.35;;
50056;SDS011;36875;49.468;11.200;2023-11-19T00:35:05;2.08;;;0.98;;
50056;SDS011;36875;49.468;11.200;2023-11-19T00:37:31;2.53;;;0.82;;
50056;SDS011;36875;49.468;11.200;2023-11-19T00:39:56;1.95;;;1.00;;
50056;SDS011;36875;49.468;11.200;2023-11-19T00:42:23;3.25;;;1.00;;
50056;SDS011;36875;49.468;11.200;2023-11-19T00:44:49;3.38;;;1.00;;
50056;SDS011;36875;49.468;11.200;2023-11-19T00:47:16;3.22;;;1.15;;
50056;SDS011;36875;49.468;11.200;2023-11-19T00:49:41;2.97;;;1.00;;
50056;SDS011;36875;49.468;11.200;2023-11-19T00:52:07;1.83;;;0.82;;
50056;SDS011;36875;49.468;11.200;2023-11-19T00:54:33;2.80;;;1.00;;
50056;SDS011;36875;49.468;11.200;2023-11-19T00:56:58;2.17;;;1.05;;
50056;SDS011;36875;49.468;11.200;2023-11-19T00:59:24;2.42;;;1.05;;
50056;SDS011;36875;49.468;11.200;2023-11-19T01:01:49;3.88;;;1.00;;
50056;SDS011;36875;49.468;11.200;2023-11-19T01:04:17;1.60;;;0.85;;
50056;SDS011;36875;49.468;11.200;2023-11-19T01:06:43;2.25;;;0.90;;
50056;SDS011;36875;49.468;11.200;2023-11-19T01:09:08;4.25;;;1.00;;
50056;SDS011;36875;49.468;11.200;2023-11-19T01:11:34;1.85;;;1.08;;
50056;SDS011;36875;49.468;11.200;2023-11-19T01:14:00;2.25;;;1.00;;
50056;SDS011;36875;49.468;11.200;2023-11-19T01:16:26;4.15;;;1.20;;
50056;SDS011;36875;49.468;11.200;2023-11-19T01:18:51;2.53;;;1.02;;
50056;SDS011;36875;49.468;11.200;2023-11-19T01:21:18;3.35;;;0.90;;
50056;SDS011;36875;49.468;11.200;2023-11-19T01:23:44;1.48;;;0.82;;
50056;SDS011;36875;49.468;11.200;2023-11-19T01:26:10;2.08;;;0.90;;
50056;SDS011;36875;49.468;11.200;2023-11-19T01:28:37;3.15;;;1.00;;
50056;SDS011;36875;49.468;11.200;2023-11-19T01:31:04;2.75;;;0.93;;
50056;SDS011;36875;49.468;11.200;2023-11-19T01:33:30;1.50;;;0.63;;
50056;SDS011;36875;49.468;11.200;2023-11-19T01:35:55;2.83;;;0.98;;
50056;SDS011;36875;49.468;11.200;2023-11-19T01:38:25;1.15;;;0.80;;
50056;SDS011;36875;49.468;11.200;2023-11-19T01:40:50;1.90;;;0.80;;
50056;SDS011;36875;49.468;11.200;2023-11-19T01:43:33;2.38;;;0.77;;
50056;SDS011;36875;49.468;11.200;2023-11-19T01:45:59;2.30;;;0.90;;
50056;SDS011;36875;49.468;11.200;2023-11-19T01:48:25;2.45;;;0.88;;
50056;SDS011;36875;49.468;11.200;2023-11-19T01:50:51;1.42;;;0.65;;
50056;SDS011;36875;49.468;11.200;2023-11-19T01:53:18;1.33;;;0.80;;
50056;SDS011;36875;49.468;11.200;2023-11-19T01:55:45;1.27;;;0.70;;
50056;SDS011;36875;49.468;11.200;2023-11-19T01:58:12;2.88;;;0.93;;
50056;SDS011;36875;49.468;11.200;2023-11-19T02:00:38;2.15;;;1.13;;
50056;SDS011;36875;49.468;11.200;2023-11-19T02:03:03;1.70;;;0.52;;
50056;SDS011;36875;49.468;11.200;2023-11-19T02:05:31;1.73;;;0.80;;
50056;SDS011;36875;49.468;11.200;2023-11-19T02:07:58;1.52;;;0.73;;
50056;SDS011;36875;49.468;11.200;2023-11-19T02:10:23;1.10;;;0.60;;
50056;SDS011;36875;49.468;11.200;2023-11-19T02:12:51;1.10;;;0.73;;
50056;SDS011;36875;49.468;11.200;2023-11-19T02:15:17;1.92;;;0.70;;
50056;SDS011;36875;49.468;11.200;2023-11-19T02:17:44;1.67;;;0.70;;
50056;SDS011;36875;49.468;11.200;2023-11-19T02:20:10;2.05;;;0.70;;
50056;SDS011;36875;49.468;11.200;2023-11-19T02:22:38;1.52;;;0.80;;
50056;SDS011;36875;49.468;11.200;2023-11-19T02:25:04;1.95;;;0.80;;
50056;SDS011;36875;49.468;11.200;2023-11-19T02:27:40;2.08;;;0.90;;
50056;SDS011;36875;49.468;11.200;2023-11-19T02:30:10;1.05;;;0.60;;
50056;SDS011;36875;49.468;11.200;2023-11-19T02:32:36;2.75;;;0.82;;
50056;SDS011;36875;49.468;11.200;2023-11-19T02:35:04;1.55;;;0.77;;
50056;SDS011;36875;49.468;11.200;2023-11-19T02:37:30;1.23;;;0.60;;
50056;SDS011;36875;49.468;11.200;2023-11-19T02:39:55;0.70;;;0.57;;
50056;SDS011;36875;49.468;11.200;2023-11-19T02:42:21;1.67;;;0.70;;
50056;SDS011;36875;49.468;11.200;2023-11-19T02:44:48;1.42;;;0.80;;
50056;SDS011;36875;49.468;11.200;2023-11-19T02:47:13;2.05;;;0.55;;
50056;SDS011;36875;49.468;11.200;2023-11-19T02:49:39;1.05;;;0.55;;
50056;SDS011;36875;49.468;11.200;2023-11-19T02:52:05;2.15;;;0.80;;
50056;SDS011;36875;49.468;11.200;2023-11-19T02:54:31;0.98;;;0.50;;
50056;SDS011;36875;49.468;11.200;2023-11-19T02:57:00;1.85;;;0.50;;
50056;SDS011;36875;49.468;11.200;2023-11-19T02:59:26;1.75;;;0.60;;
50056;SDS011;36875;49.468;11.200;2023-11-19T03:01:54;3.95;;;0.65;;
50056;SDS011;36875;49.468;11.200;2023-11-19T03:04:20;1.83;;;0.70;;
50056;SDS011;36875;49.468;11.200;2023-11-19T03:06:45;2.67;;;0.68;;
50056;SDS011;36875;49.468;11.200;2023-11-19T03:09:11;0.73;;;0.70;;
50056;SDS011;36875;49.468;11.200;2023-11-19T03:11:36;1.95;;;0.70;;
50056;SDS011;36875;49.468;11.200;2023-11-19T03:14:02;0.93;;;0.60;;
50056;SDS011;36875;49.468;11.200;2023-11-19T03:16:28;1.38;;;0.60;;
50056;SDS011;36875;49.468;11.200;2023-11-19T03:18:55;0.95;;;0.60;;
50056;SDS011;36875;49.468;11.200;2023-11-19T03:21:26;1.23;;;0.63;;
50056;SDS011;36875;49.468;11.200;2023-11-19T03:23:52;1.08;;;0.52;;
50056;SDS011;36875;49.468;11.200;2023-11-19T03:26:18;1.98;;;0.80;;
50056;SDS011;36875;49.468;11.200;2023-11-19T03:28:43;1.35;;;0.75;;
50056;SDS011;36875;49.468;11.200;2023-11-19T03:31:09;1.48;;;0.60;;
50056;SDS011;36875;49.468;11.200;2023-11-19T03:33:34;0.80;;;0.63;;
50056;SDS011;36875;49.468;11.200;2023-11-19T03:36:01;2.03;;;0.55;;
50056;SDS011;36875;49.468;11.200;2023-11-19T03:38:26;0.85;;;0.57;;
50056;SDS011;36875;49.468;11.200;2023-11-19T03:40:52;2.25;;;0.60;;
50056;SDS011;36875;49.468;11.200;2023-11-19T03:43:17;1.17;;;0.60;;
50056;SDS011;36875;49.468;11.200;2023-11-19T03:45:44;1.77;;;0.70;;
50056;SDS011;36875;49.468;11.200;2023-11-19T03:48:09;1.40;;;0.50;;
50056;SDS011;36875;49.468;11.200;2023-11-19T03:50:35;1.30;;;0.50;;
50056;SDS011;36875;49.468;11.200;2023-11-19T03:53:02;1.17;;;0.60;;
50056;SDS011;36875;49.468;11.200;2023-11-19T03:55:28;0.95;;;0.63;;
50056;SDS011;36875;49.468;11.200;2023-11-19T03:57:54;1.33;;;0.65;;
50056;SDS011;36875;49.468;11.200;2023-11-19T04:00:20;1.13;;;0.60;;
50056;SDS011;36875;49.468;11.200;2023-11-19T04:02:46;0.98;;;0.50;;
50056;SDS011;36875;49.468;11.200;2023-11-19T04:05:12;1.27;;;0.50;;
50056;SDS011;36875;49.468;11.200;2023-11-19T04:07:37;1.85;;;0.73;;
50056;SDS011;36875;49.468;11.200;2023-11-19T04:10:05;0.60;;;0.60;;
50056;SDS011;36875;49.468;11.200;2023-11-19T04:12:31;1.00;;;0.60;;
50056;SDS011;36875;49.468;11.200;2023-11-19T04:14:56;0.90;;;0.57;;
50056;SDS011;36875;49.468;11.200;2023-11-19T04:17:22;0.68;;;0.40;;
50056;SDS011;36875;49.468;11.200;2023-11-19T04:19:48;1.88;;;0.70;;
50056;SDS011;36875;49.468;11.200;2023-11-19T04:22:13;1.27;;;0.50;;
50056;SDS011;36875;49.468;11.200;2023-11-19T04:24:39;0.60;;;0.60;;
50056;SDS011;36875;49.468;11.200;2023-11-19T04:27:07;1.05;;;0.47;;
50056;SDS011;36875;49.468;11.200;2023-11-19T04:29:32;0.73;;;0.50;;
50056;SDS011;36875;49.468;11.200;2023-11-19T04:31:58;1.10;;;0.50;;
50056;SDS011;36875;49.468;11.200;2023-11-19T04:34:24;1.58;;;0.63;;
50056;SDS011;36875;49.468;11.200;2023-11-19T04:36:49;1.85;;;0.50;;
50056;SDS011;36875;49.468;11.200;2023-11-19T04:39:15;0.68;;;0.60;;
50056;SDS011;36875;49.468;11.200;2023-11-19T04:41:47;0.73;;;0.63;;
50056;SDS011;36875;49.468;11.200;2023-11-19T04:44:18;0.70;;;0.50;;
50056;SDS011;36875;49.468;11.200;2023-11-19T04:46:44;0.57;;;0.50;;
50056;SDS011;36875;49.468;11.200;2023-11-19T04:49:10;0.57;;;0.40;;
50056;SDS011;36875;49.468;11.200;2023-11-19T04:51:37;0.50;;;0.40;;
50056;SDS011;36875;49.468;11.200;2023-11-19T04:54:04;2.13;;;0.60;;
50056;SDS011;36875;49.468;11.200;2023-11-19T04:56:30;1.17;;;0.50;;
50056;SDS011;36875;49.468;11.200;2023-11-19T04:58:55;1.48;;;0.50;;
50056;SDS011;36875;49.468;11.200;2023-11-19T05:01:22;3.33;;;0.60;;
50056;SDS011;36875;49.468;11.200;2023-11-19T05:03:47;1.60;;;0.50;;
50056;SDS011;36875;49.468;11.200;2023-11-19T05:06:13;0.95;;;0.40;;
50056;SDS011;36875;49.468;11.200;2023-11-19T05:08:38;2.35;;;0.60;;
50056;SDS011;36875;49.468;11.200;2023-11-19T05:11:04;0.80;;;0.70;;
50056;SDS011;36875;49.468;11.200;2023-11-19T05:13:30;0.88;;;0.50;;
50056;SDS011;36875;49.468;11.200;2023-11-19T05:15:56;0.88;;;0.50;;
50056;SDS011;36875;49.468;11.200;2023-11-19T05:18:23;0.93;;;0.60;;
50056;SDS011;36875;49.468;11.200;2023-11-19T05:20:48;1.38;;;0.60;;
50056;SDS011;36875;49.468;11.200;2023-11-19T05:23:14;0.65;;;0.50;;
50056;SDS011;36875;49.468;11.200;2023-11-19T05:25:39;0.90;;;0.50;;
50056;SDS011;36875;49.468;11.200;2023-11-19T05:28:05;0.88;;;0.57;;
50056;SDS011;36875;49.468;11.200;2023-11-19T05:30:30;1.42;;;0.50;;
50056;SDS011;36875;49.468;11.200;2023-11-19T05:32:56;0.60;;;0.50;;
50056;SDS011;36875;49.468;11.200;2023-11-19T05:35:22;1.85;;;0.60;;
50056;SDS011;36875;49.468;11.200;2023-11-19T05:37:48;4.22;;;0.60;;
50056;SDS011;36875;49.468;11.200;2023-11-19T05:40:15;4.30;;;0.50;;
50056;SDS011;36875;49.468;11.200;2023-11-19T05:42:40;0.40;;;0.40;;
50056;SDS011;36875;49.468;11.200;2023-11-19T05:45:06;1.45;;;0.40;;
50056;SDS011;36875;49.468;11.200;2023-11-19T05:47:32;1.55;;;0.50;;
50056;SDS011;36875;49.468;11.200;2023-11-19T05:49:58;0.55;;;0.50;;
50056;SDS011;36875;49.468;11.200;2023-11-19T05:52:25;1.98;;;0.55;;
50056;SDS011;36875;49.468;11.200;2023-11-19T05:54:50;0.70;;;0.43;;
50056;SDS011;36875;49.468;11.200;2023-11-19T05:57:19;1.00;;;0.50;;
50056;SDS011;36875;49.468;11.200;2023-11-19T05:59:50;1.80;;;0.68;;
50056;SDS011;36875;49.468;11.200;2023-11-19T06:02:16;1.08;;;0.50;;
50056;SDS011;36875;49.468;11.200;2023-11-19T06:04:41;1.15;;;0.52;;
50056;SDS011;36875;49.468;11.200;2023-11-19T06:07:09;1.65;;;0.50;;
50056;SDS011;36875;49.468;11.200;2023-11-19T06:09:36;0.40;;;0.40;;
50056;SDS011;36875;49.468;11.200;2023-11-19T06:12:01;1.15;;;0.52;;
50056;SDS011;36875;49.468;11.200;2023-11-19T06:14:27;2.00;;;0.60;;
50056;SDS011;36875;49.468;11.200;2023-11-19T06:16:53;3.08;;;0.88;;
50056;SDS011;36875;49.468;11.200;2023-11-19T06:19:18;1.80;;;0.63;;
50056;SDS011;36875;49.468;11.200;2023-11-19T06:21:44;1.63;;;0.60;;
50056;SDS011;36875;49.468;11.200;2023-11-19T06:24:09;0.75;;;0.65;;
50056;SDS011;36875;49.468;11.200;2023-11-19T06:26:36;0.82;;;0.50;;
50056;SDS011;36875;49.468;11.200;2023-11-19T06:29:01;1.45;;;0.57;;
50056;SDS011;36875;49.468;11.200;2023-11-19T06:31:27;1.27;;;0.60;;
50056;SDS011;36875;49.468;11.200;2023-11-19T06:33:52;1.50;;;0.75;;
50056;SDS011;36875;49.468;11.200;2023-11-19T06:36:18;6.13;;;0.77;;
50056;SDS011;36875;49.468;11.200;2023-11-19T06:38:43;1.92;;;0.65;;
50056;SDS011;36875;49.468;11.200;2023-11-19T06:41:09;2.13;;;0.70;;
50056;SDS011;36875;49.468;11.200;2023-11-19T06:43:36;3.33;;;0.95;;
50056;SDS011;36875;49.468;11.200;2023-11-19T06:46:02;1.77;;;0.80;;
50056;SDS011;36875;49.468;11.200;2023-11-19T06:48:27;3.85;;;0.70;;
50056;SDS011;36875;49.468;11.200;2023-11-19T06:50:53;0.95;;;0.60;;
50056;SDS011;36875;49.468;11.200;2023-11-19T06:53:18;1.73;;;0.70;;
50056;SDS011;36875;49.468;11.200;2023-11-19T06:55:44;1.35;;;0.80;;
50056;SDS011;36875;49.468;11.200;2023-11-19T06:58:09;2.08;;;0.60;;
50056;SDS011;36875;49.468;11.200;2023-11-19T07:00:36;1.35;;;0.57;;
50056;SDS011;36875;49.468;11.200;2023-11-19T07:03:02;1.35;;;0.70;;
50056;SDS011;36875;49.468;11.200;2023-11-19T07:05:27;1.92;;;0.60;;
50056;SDS011;36875;49.468;11.200;2023-11-19T07:07:53;3.78;;;0.85;;
50056;SDS011;36875;49.468;11.200;2023-11-19T07:10:19;2.53;;;0.68;;
50056;SDS011;36875;49.468;11.200;2023-11-19T07:12:45;0.68;;;0.45;;
50056;SDS011;36875;49.468;11.200;2023-11-19T07:15:10;1.25;;;0.45;;
50056;SDS011;36875;49.468;11.200;2023-11-19T07:17:39;1.90;;;0.70;;
50056;SDS011;36875;49.468;11.200;2023-11-19T07:20:05;3.75;;;0.60;;
50056;SDS011;36875;49.468;11.200;2023-11-19T07:22:31;3.30;;;0.88;;
50056;SDS011;36875;49.468;11.200;2023-11-19T07:24:57;2.85;;;0.73;;
50056;SDS011;36875;49.468;11.200;2023-11-19T07:27:23;1.88;;;0.70;;
50056;SDS011;36875;49.468;11.200;2023-11-19T07:29:49;4.05;;;1.02;;
50056;SDS011;36875;49.468;11.200;2023-11-19T07:32:15;2.85;;;0.60;;
50056;SDS011;36875;49.468;11.200;2023-11-19T07:34:42;4.05;;;0.77;;
50056;SDS011;36875;49.468;11.200;2023-11-19T07:37:09;3.20;;;0.80;;
50056;SDS011;36875;49.468;11.200;2023-11-19T07:39:35;2.70;;;0.93;;
50056;SDS011;36875;49.468;11.200;2023-11-19T07:42:03;2.88;;;0.73;;
50056;SDS011;36875;49.468;11.200;2023-11-19T07:44:28;4.07;;;1.13;;
50056;SDS011;36875;49.468;11.200;2023-11-19T07:46:54;3.78;;;0.70;;
50056;SDS011;36875;49.468;11.200;2023-11-19T07:49:19;4.22;;;0.80;;
50056;SDS011;36875;49.468;11.200;2023-11-19T07:51:46;2.28;;;0.70;;
50056;SDS011;36875;49.468;11.200;2023-11-19T07:54:12;3.03;;;0.77;;
50056;SDS011;36875;49.468;11.200;2023-11-19T07:56:38;3.83;;;0.80;;
50056;SDS011;36875;49.468;11.200;2023-11-19T07:59:04;5.32;;;0.98;;
50056;SDS011;36875;49.468;11.200;2023-11-19T08:01:29;2.45;;;0.77;;
50056;SDS011;36875;49.468;11.200;2023-11-19T08:03:55;3.13;;;1.00;;
50056;SDS011;36875;49.468;11.200;2023-11-19T08:06:21;2.75;;;0.80;;
50056;SDS011;36875;49.468;11.200;2023-11-19T08:08:48;1.88;;;0.65;;
50056;SDS011;36875;49.468;11.200;2023-11-19T08:11:13;2.55;;;0.90;;
50056;SDS011;36875;49.468;11.200;2023-11-19T08:13:40;4.65;;;1.13;;
50056;SDS011;36875;49.468;11.200;2023-11-19T08:16:06;2.92;;;0.95;;
50056;SDS011;36875;49.468;11.200;2023-11-19T08:18:32;3.00;;;0.90;;
50056;SDS011;36875;49.468;11.200;2023-11-19T08:20:57;2.47;;;0.77;;
50056;SDS011;36875;49.468;11.200;2023-11-19T08:23:24;5.63;;;0.90;;
50056;SDS011;36875;49.468;11.200;2023-11-19T08:25:52;2.85;;;0.80;;
50056;SDS011;36875;49.468;11.200;2023-11-19T08:28:17;4.55;;;0.73;;
50056;SDS011;36875;49.468;11.200;2023-11-19T08:30:43;1.15;;;0.63;;
50056;SDS011;36875;49.468;11.200;2023-11-19T08:33:09;3.58;;;0.90;;
50056;SDS011;36875;49.468;11.200;2023-11-19T08:35:34;4.65;;;1.00;;
50056;SDS011;36875;49.468;11.200;2023-11-19T08:38:00;6.65;;;0.68;;
50056;SDS011;36875;49.468;11.200;2023-11-19T08:40:26;3.58;;;1.02;;
50056;SDS011;36875;49.468;11.200;2023-11-19T08:42:53;6.07;;;1.10;;
50056;SDS011;36875;49.468;11.200;2023-11-19T08:45:19;4.95;;;1.10;;
50056;SDS011;36875;49.468;11.200;2023-11-19T08:47:44;5.85;;;1.10;;
50056;SDS011;36875;49.468;11.200;2023-11-19T08:50:10;4.80;;;1.27;;
50056;SDS011;36875;49.468;11.200;2023-11-19T08:52:36;5.25;;;1.10;;
50056;SDS011;36875;49.468;11.200;2023-11-19T08:55:02;5.95;;;1.35;;
50056;SDS011;36875;49.468;11.200;2023-11-19T08:57:28;7.82;;;1.45;;
50056;SDS011;36875;49.468;11.200;2023-11-19T08:59:55;5.00;;;1.40;;
50056;SDS011;36875;49.468;11.200;2023-11-19T09:02:20;7.07;;;1.40;;
50056;SDS011;36875;49.468;11.200;2023-11-19T09:04:46;7.18;;;1.90;;
50056;SDS011;36875;49.468;11.200;2023-11-19T09:07:11;10.25;;;1.80;;
50056;SDS011;36875;49.468;11.200;2023-11-19T09:09:37;9.15;;;1.75;;
50056;SDS011;36875;49.468;11.200;2023-11-19T09:12:03;8.18;;;1.55;;
50056;SDS011;36875;49.468;11.200;2023-11-19T09:14:29;10.60;;;1.40;;
50056;SDS011;36875;49.468;11.200;2023-11-19T09:16:56;11.52;;;1.42;;
50056;SDS011;36875;49.468;11.200;2023-11-19T09:19:23;6.30;;;1.50;;
50056;SDS011;36875;49.468;11.200;2023-11-19T09:21:48;9.20;;;1.83;;
50056;SDS011;36875;49.468;11.200;2023-11-19T09:24:14;8.32;;;1.85;;
50056;SDS011;36875;49.468;11.200;2023-11-19T09:26:39;10.50;;;2.35;;
50056;SDS011;36875;49.468;11.200;2023-11-19T09:29:06;9.85;;;1.63;;
50056;SDS011;36875;49.468;11.200;2023-11-19T09:31:32;10.38;;;2.05;;
50056;SDS011;36875;49.468;11.200;2023-11-19T09:33:59;9.80;;;2.38;;
50056;SDS011;36875;49.468;11.200;2023-11-19T09:36:26;6.22;;;1.60;;
50056;SDS011;36875;49.468;11.200;2023-11-19T09:38:52;7.95;;;1.83;;
50056;SDS011;36875;49.468;11.200;2023-11-19T09:41:17;8.85;;;1.50;;
50056;SDS011;36875;49.468;11.200;2023-11-19T09:43:44;10.63;;;1.77;;
50056;SDS011;36875;49.468;11.200;2023-11-19T09:46:10;7.22;;;1.90;;
50056;SDS011;36875;49.468;11.200;2023-11-19T09:48:38;6.35;;;1.15;;
50056;SDS011;36875;49.468;11.200;2023-11-19T09:51:08;4.97;;;1.02;;
50056;SDS011;36875;49.468;11.200;2023-11-19T09:53:35;8.93;;;1.40;;
50056;SDS011;36875;49.468;11.200;2023-11-19T09:56:02;7.03;;;1.45;;
50056;SDS011;36875;49.468;11.200;2023-11-19T09:58:28;8.57;;;1.90;;
50056;SDS011;36875;49.468;11.200;2023-11-19T10:00:54;4.95;;;1.40;;
50056;SDS011;36875;49.468;11.200;2023-11-19T10:03:19;5.60;;;1.10;;
50056;SDS011;36875;49.468;11.200;2023-11-19T10:05:46;5.68;;;1.10;;
50056;SDS011;36875;49.468;11.200;2023-11-19T10:08:13;8.38;;;1.50;;
50056;SDS011;36875;49.468;11.200;2023-11-19T10:10:39;4.65;;;1.40;;
50056;SDS011;36875;49.468;11.200;2023-11-19T10:13:04;6.80;;;1.23;;
50056;SDS011;36875;49.468;11.200;2023-11-19T10:15:33;9.63;;;1.42;;
50056;SDS011;36875;49.468;11.200;2023-11-19T10:18:02;7.60;;;1.25;;
50056;SDS011;36875;49.468;11.200;2023-11-19T10:20:29;5.60;;;1.00;;
50056;SDS011;36875;49.468;11.200;2023-11-19T10:25:27;6.85;;;1.50;;
50056;SDS011;36875;49.468;11.200;2023-11-19T10:27:55;14.38;;;1.88;;
50056;SDS011;36875;49.468;11.200;2023-11-19T10:30:22;9.90;;;2.08;;
50056;SDS011;36875;49.468;11.200;2023-11-19T10:33:02;11.60;;;1.73;;
50056;SDS011;36875;49.468;11.200;2023-11-19T10:35:29;12.77;;;1.65;;
50056;SDS011;36875;49.468;11.200;2023-11-19T10:37:54;8.38;;;1.90;;
50056;SDS011;36875;49.468;11.200;2023-11-19T10:40:20;7.93;;;1.42;;
50056;SDS011;36875;49.468;11.200;2023-11-19T10:42:47;6.65;;;1.23;;
50056;SDS011;36875;49.468;11.200;2023-11-19T10:45:22;7.25;;;1.25;;
50056;SDS011;36875;49.468;11.200;2023-11-19T10:47:49;9.20;;;1.48;;
50056;SDS011;36875;49.468;11.200;2023-11-19T10:50:16;7.60;;;1.20;;
50056;SDS011;36875;49.468;11.200;2023-11-19T10:52:41;9.23;;;2.00;;
50056;SDS011;36875;49.468;11.200;2023-11-19T10:55:09;9.82;;;1.50;;
50056;SDS011;36875;49.468;11.200;2023-11-19T10:57:38;7.22;;;1.50;;
50056;SDS011;36875;49.468;11.200;2023-11-19T11:00:10;6.85;;;1.45;;
50056;SDS011;36875;49.468;11.200;2023-11-19T11:02:43;5.35;;;1.35;;
50056;SDS011;36875;49.468;11.200;2023-11-19T11:05:15;10.75;;;1.50;;
50056;SDS011;36875;49.468;11.200;2023-11-19T11:07:42;8.15;;;1.35;;
50056;SDS011;36875;49.468;11.200;2023-11-19T11:10:10;11.52;;;1.83;;
50056;SDS011;36875;49.468;11.200;2023-11-19T11:12:38;9.40;;;1.75;;
50056;SDS011;36875;49.468;11.200;2023-11-19T11:15:07;15.13;;;2.42;;
50056;SDS011;36875;49.468;11.200;2023-11-19T11:17:38;12.95;;;1.70;;
50056;SDS011;36875;49.468;11.200;2023-11-19T11:20:05;12.70;;;2.10;;
50056;SDS011;36875;49.468;11.200;2023-11-19T11:22:38;10.93;;;1.42;;
50056;SDS011;36875;49.468;11.200;2023-11-19T11:25:19;11.32;;;1.80;;
50056;SDS011;36875;49.468;11.200;2023-11-19T11:28:01;12.05;;;1.77;;
50056;SDS011;36875;49.468;11.200;2023-11-19T11:30:38;10.88;;;2.40;;
50056;SDS011;36875;49.468;11.200;2023-11-19T11:33:20;15.88;;;2.15;;
50056;SDS011;36875;49.468;11.200;2023-11-19T11:35:59;19.15;;;2.08;;
50056;SDS011;36875;49.468;11.200;2023-11-19T11:38:35;14.98;;;2.33;;
50056;SDS011;36875;49.468;11.200;2023-11-19T11:41:17;13.50;;;1.90;;
50056;SDS011;36875;49.468;11.200;2023-11-19T11:43:44;15.27;;;2.10;;
50056;SDS011;36875;49.468;11.200;2023-11-19T11:49:11;14.77;;;1.85;;
50056;SDS011;36875;49.468;11.200;2023-11-19T11:51:57;24.60;;;2.38;;
50056;SDS011;36875;49.468;11.200;2023-11-19T11:54:29;17.95;;;2.45;;
50056;SDS011;36875;49.468;11.200;2023-11-19T11:57:02;14.38;;;2.33;;
50056;SDS011;36875;49.468;11.200;2023-11-19T11:59:31;16.83;;;2.63;;
50056;SDS011;36875;49.468;11.200;2023-11-19T12:02:02;24.50;;;2.55;;
50056;SDS011;36875;49.468;11.200;2023-11-19T12:04:29;14.05;;;2.08;;
50056;SDS011;36875;49.468;11.200;2023-11-19T12:07:04;17.98;;;2.97;;
50056;SDS011;36875;49.468;11.200;2023-11-19T12:09:31;20.08;;;2.33;;
50056;SDS011;36875;49.468;11.200;2023-11-19T12:12:06;14.23;;;2.38;;
50056;SDS011;36875;49.468;11.200;2023-11-19T12:17:40;21.67;;;2.60;;
50056;SDS011;36875;49.468;11.200;2023-11-19T12:20:11;18.60;;;2.75;;
50056;SDS011;36875;49.468;11.200;2023-11-19T12:22:37;18.08;;;2.80;;
50056;SDS011;36875;49.468;11.200;2023-11-19T12:25:03;10.13;;;2.55;;
50056;SDS011;36875;49.468;11.200;2023-11-19T12:27:30;20.60;;;3.85;;
50056;SDS011;36875;49.468;11.200;2023-11-19T12:29:56;15.68;;;2.30;;
50056;SDS011;36875;49.468;11.200;2023-11-19T12:32:22;19.83;;;2.40;;
50056;SDS011;36875;49.468;11.200;2023-11-19T12:34:47;26.05;;;2.65;;
50056;SDS011;36875;49.468;11.200;2023-11-19T12:37:14;16.60;;;3.38;;
50056;SDS011;36875;49.468;11.200;2023-11-19T12:39:40;12.73;;;2.38;;
50056;SDS011;36875;49.468;11.200;2023-11-19T12:42:05;19.60;;;2.35;;
50056;SDS011;36875;49.468;11.200;2023-11-19T12:44:31;15.45;;;2.33;;
50056;SDS011;36875;49.468;11.200;2023-11-19T12:47:02;16.20;;;2.92;;
50056;SDS011;36875;49.468;11.200;2023-11-19T12:49:28;13.75;;;2.55;;
50056;SDS011;36875;49.468;11.200;2023-11-19T12:51:54;17.45;;;2.53;;
50056;SDS011;36875;49.468;11.200;2023-11-19T12:54:30;20.00;;;2.42;;
50056;SDS011;36875;49.468;11.200;2023-11-19T12:56:57;10.68;;;2.80;;
50056;SDS011;36875;49.468;11.200;2023-11-19T12:59:22;12.88;;;2.17;;
50056;SDS011;36875;49.468;11.200;2023-11-19T13:01:54;12.50;;;2.30;;
50056;SDS011;36875;49.468;11.200;2023-11-19T13:04:20;17.02;;;2.55;;
50056;SDS011;36875;49.468;11.200;2023-11-19T13:06:45;10.95;;;2.22;;
50056;SDS011;36875;49.468;11.200;2023-11-19T13:09:22;16.63;;;1.83;;
50056;SDS011;36875;49.468;11.200;2023-11-19T13:11:49;13.27;;;1.95;;
50056;SDS011;36875;49.468;11.200;2023-11-19T13:14:15;14.98;;;2.53;;
50056;SDS011;36875;49.468;11.200;2023-11-19T13:16:40;19.13;;;2.53;;
50056;SDS011;36875;49.468;11.200;2023-11-19T13:19:07;22.75;;;2.95;;
50056;SDS011;36875;49.468;11.200;2023-11-19T13:21:33;16.08;;;2.72;;
50056;SDS011;36875;49.468;11.200;2023-11-19T13:23:59;17.45;;;2.88;;
50056;SDS011;36875;49.468;11.200;2023-11-19T13:26:26;11.15;;;2.05;;
50056;SDS011;36875;49.468;11.200;2023-11-19T13:28:52;14.52;;;2.22;;
50056;SDS011;36875;49.468;11.200;2023-11-19T13:31:17;14.55;;;2.63;;
50056;SDS011;36875;49.468;11.200;2023-11-19T13:33:43;13.55;;;2.13;;
50056;SDS011;36875;49.468;11.200;2023-11-19T13:36:08;11.68;;;2.58;;
50056;SDS011;36875;49.468;11.200;2023-11-19T13:38:34;9.40;;;1.77;;
50056;SDS011;36875;49.468;11.200;2023-11-19T13:41:01;11.45;;;2.60;;
50056;SDS011;36875;49.468;11.200;2023-11-19T13:43:27;11.85;;;1.95;;
50056;SDS011;36875;49.468;11.200;2023-11-19T13:45:53;9.93;;;2.10;;
50056;SDS011;36875;49.468;11.200;2023-11-19T13:48:19;12.05;;;2.80;;
50056;SDS011;36875;49.468;11.200;2023-11-19T13:50:44;11.85;;;2.10;;
50056;SDS011;36875;49.468;11.200;2023-11-19T13:53:10;14.35;;;2.17;;
50056;SDS011;36875;49.468;11.200;2023-11-19T13:55:36;10.98;;;2.40;;
50056;SDS011;36875;49.468;11.200;2023-11-19T13:58:01;15.93;;;2.35;;
50056;SDS011;36875;49.468;11.200;2023-11-19T14:00:28;12.73;;;1.70;;
50056;SDS011;36875;49.468;11.200;2023-11-19T14:02:54;12.25;;;1.95;;
50056;SDS011;36875;49.468;11.200;2023-11-19T14:05:19;7.50;;;1.75;;
50056;SDS011;36875;49.468;11.200;2023-11-19T14:07:45;11.45;;;2.03;;
50056;SDS011;36875;49.468;11.200;2023-11-19T14:10:13;12.27;;;2.40;;
50056;SDS011;36875;49.468;11.200;2023-11-19T14:12:40;10.27;;;1.73;;
50056;SDS011;36875;49.468;11.200;2023-11-19T14:15:06;8.70;;;1.30;;
50056;SDS011;36875;49.468;11.200;2023-11-19T14:17:34;12.85;;;1.80;;
50056;SDS011;36875;49.468;11.200;2023-11-19T14:19:59;9.02;;;1.63;;
50056;SDS011;36875;49.468;11.200;2023-11-19T14:22:25;9.45;;;1.60;;
50056;SDS011;36875;49.468;11.200;2023-11-19T14:24:50;12.02;;;1.63;;
50056;SDS011;36875;49.468;11.200;2023-11-19T14:27:16;11.13;;;2.03;;
50056;SDS011;36875;49.468;11.200;2023-11-19T14:29:44;10.63;;;2.08;;
50056;SDS011;36875;49.468;11.200;2023-11-19T14:32:10;13.00;;;2.63;;
50056;SDS011;36875;49.468;11.200;2023-11-19T14:34:37;11.32;;;2.35;;
50056;SDS011;36875;49.468;11.200;2023-11-19T14:37:03;6.40;;;1.70;;